Pavilion, NY (14525)

5:52 PM EST on December 26, 2014 (GMT -0500)
6 Bears Farm | Change Station
CLOSE
Current Station
Personal Weather Station
Location: Wyoming, NY
Elevation: 1260 ft
Nearby Weather Stations

Elev 1260 ft 42.87 °N, 78.07 °W | Updated 12 minutes ago

Partly Cloudy
Partly Cloudy
38.3 °F
Feels Like 38 °F
N
0.0
Wind Variable Wind from SSW

Today
High -- | Low -- °F
--% Chance of Precip.
Yesterday
High -- | Low -- °F
Precip. -- in
7:41 AM 4:43 PM
Waxing Crescent, 30% visible
Pressure 30.15 in
Visibility 10.0 miles
Clouds Few 3000 ft
Few 15000 ft
Scattered Clouds 20000 ft
Windchill 38 °F
Dew Point 32 °F
Humidity 79%
Rainfall 0.00 in
Snow Depth Not available.
UV 0 out of 12
Pollen .10 out of 12
Air Quality Not available.
Flu Activity Not available.
METAR KROC 262154Z COR 19006KT 10SM FEW030 FEW150 SCT200 06/M02 A3012 RMK AO2 SLP208 T00611017

More Conditions Fewer Conditions

Pressure 30.15 in
Visibility 10.0 miles
Clouds Few 3000 ft
Few 15000 ft
Scattered Clouds 20000 ft
Windchill 38 °F
Dew Point 32 °F
Humidity 79%
Rainfall 0.00 in
Snow Depth Not available.
UV 0 out of 12
Pollen .10 out of 12
Air Quality Not available.
Flu Activity Not available.
METAR KROC 262154Z COR 19006KT 10SM FEW030 FEW150 SCT200 06/M02 A3012 RMK AO2 SLP208 T00611017

More Conditions Fewer Conditions

10-Day Weather Forecast

Almanac

Astronomy

Dec. 26, 2014 Rise Set
Actual Time
Civil Twilight
Nautical Twilight
Astronomical Twilight
Moon
Length of Visible Light
Length of Day
Tomorrow will be .
, % of the Moon is Illuminated

Today's Extremes

State Highs State Lows

Community

WunderPhotos

Upload Photos

1,780,746 photos uploaded!

WunderBlogs® & News

Nearby

Air Quality

  Air Quality AQ Index Pollutant
Not available.

Snow Depth

Station Depth Elevation

Earthquake Activity

City Distance Mag. Time & Date
Minimum magnitude displayed is 2.5.

Coastal Water Temperatures

Place Temperature

Nearby Weather Stations